LBB weather

Lubbock Preston Smith International Airport
Lubbock, Texas, United States

Public forecast

Using degrees Fahrenheit for public forecast. Weather courtesy of forecast.io.

Current aviation weather report (METAR) for Lubbock Preston Smith International Airport

Retrieved 2020/03/30 07:53 UTC (1 hour ago):

KLBB 300753Z 11007KT 10SM FEW210 BKN240 10/02 A3003 RMK AO2 SLP143 BKN LYR THN T01000017

Aviation forecast (TAF) for Lubbock Preston Smith International Airport

Retrieved 2020/03/30 06:36 UTC (2 hours ago):

TAF KLBB 300535Z 3006/3106 11008KT P6SM SCT200 BKN250 FM301100 17011KT P6SM SCT030 FM301900 27022G35KT 6SM BLDU SCT250 FM310200 29014KT P6SM SCT250